sensor_id;sensor_type;location;lat;lon;timestamp;temperature;humidity
8043;DHT22;4064;48.132;11.366;2023-06-05T00:01:11;16.20;65.60
8043;DHT22;4064;48.132;11.366;2023-06-05T00:03:37;16.20;66.50
8043;DHT22;4064;48.132;11.366;2023-06-05T00:06:04;16.20;66.60
8043;DHT22;4064;48.132;11.366;2023-06-05T00:08:31;16.10;66.80
8043;DHT22;4064;48.132;11.366;2023-06-05T00:10:57;16.10;67.30
8043;DHT22;4064;48.132;11.366;2023-06-05T00:13:23;16.10;67.50
8043;DHT22;4064;48.132;11.366;2023-06-05T00:15:48;16.10;67.70
8043;DHT22;4064;48.132;11.366;2023-06-05T00:18:15;16.10;68.00
8043;DHT22;4064;48.132;11.366;2023-06-05T00:20:41;16.00;68.50
8043;DHT22;4064;48.132;11.366;2023-06-05T00:23:08;16.00;68.20
8043;DHT22;4064;48.132;11.366;2023-06-05T00:25:34;16.00;68.30
8043;DHT22;4064;48.132;11.366;2023-06-05T00:27:59;16.00;69.00
8043;DHT22;4064;48.132;11.366;2023-06-05T00:30:25;16.00;69.00
8043;DHT22;4064;48.132;11.366;2023-06-05T00:32:51;15.90;69.30
8043;DHT22;4064;48.132;11.366;2023-06-05T00:35:16;15.90;69.00
8043;DHT22;4064;48.132;11.366;2023-06-05T00:37:42;15.90;69.80
8043;DHT22;4064;48.132;11.366;2023-06-05T00:40:12;15.90;69.80
8043;DHT22;4064;48.132;11.366;2023-06-05T00:42:38;15.80;70.20
8043;DHT22;4064;48.132;11.366;2023-06-05T00:45:04;15.80;70.50
8043;DHT22;4064;48.132;11.366;2023-06-05T00:47:30;15.70;70.80
8043;DHT22;4064;48.132;11.366;2023-06-05T00:49:58;15.70;70.60
8043;DHT22;4064;48.132;11.366;2023-06-05T00:52:24;15.70;71.00
8043;DHT22;4064;48.132;11.366;2023-06-05T00:54:50;15.60;70.70
8043;DHT22;4064;48.132;11.366;2023-06-05T00:57:16;15.60;71.50
8043;DHT22;4064;48.132;11.366;2023-06-05T00:59:42;15.60;71.40
8043;DHT22;4064;48.132;11.366;2023-06-05T01:02:12;15.60;72.30
8043;DHT22;4064;48.132;11.366;2023-06-05T01:04:39;15.60;71.30
8043;DHT22;4064;48.132;11.366;2023-06-05T01:07:09;15.70;71.40
8043;DHT22;4064;48.132;11.366;2023-06-05T01:09:36;15.70;71.10
8043;DHT22;4064;48.132;11.366;2023-06-05T01:12:17;15.70;71.30
8043;DHT22;4064;48.132;11.366;2023-06-05T01:14:45;15.70;71.30
8043;DHT22;4064;48.132;11.366;2023-06-05T01:17:13;15.60;72.30
8043;DHT22;4064;48.132;11.366;2023-06-05T01:19:40;15.60;72.40
8043;DHT22;4064;48.132;11.366;2023-06-05T01:22:06;15.50;72.80
8043;DHT22;4064;48.132;11.366;2023-06-05T01:24:32;15.60;72.60
8043;DHT22;4064;48.132;11.366;2023-06-05T01:32:32;15.50;73.30
8043;DHT22;4064;48.132;11.366;2023-06-05T01:35:04;15.50;73.30
8043;DHT22;4064;48.132;11.366;2023-06-05T01:37:32;15.50;74.50
8043;DHT22;4064;48.132;11.366;2023-06-05T01:40:24;15.40;74.50
8043;DHT22;4064;48.132;11.366;2023-06-05T01:42:52;15.40;75.20
8043;DHT22;4064;48.132;11.366;2023-06-05T01:45:19;15.40;75.70
8043;DHT22;4064;48.132;11.366;2023-06-05T01:47:45;15.30;75.70
8043;DHT22;4064;48.132;11.366;2023-06-05T01:50:13;15.30;76.80
8043;DHT22;4064;48.132;11.366;2023-06-05T01:52:40;15.30;77.00
8043;DHT22;4064;48.132;11.366;2023-06-05T01:55:14;15.30;77.30
8043;DHT22;4064;48.132;11.366;2023-06-05T01:57:41;15.30;77.80
8043;DHT22;4064;48.132;11.366;2023-06-05T02:00:07;15.20;78.20
8043;DHT22;4064;48.132;11.366;2023-06-05T02:02:38;15.30;78.80
8043;DHT22;4064;48.132;11.366;2023-06-05T02:05:06;15.20;78.60
8043;DHT22;4064;48.132;11.366;2023-06-05T02:07:33;15.20;79.50
8043;DHT22;4064;48.132;11.366;2023-06-05T02:09:59;15.20;79.70
8043;DHT22;4064;48.132;11.366;2023-06-05T02:12:29;15.20;80.30
8043;DHT22;4064;48.132;11.366;2023-06-05T02:14:55;15.20;81.70
8043;DHT22;4064;48.132;11.366;2023-06-05T02:17:22;15.20;82.30
8043;DHT22;4064;48.132;11.366;2023-06-05T02:19:50;15.20;82.70
8043;DHT22;4064;48.132;11.366;2023-06-05T02:22:16;15.20;83.30
8043;DHT22;4064;48.132;11.366;2023-06-05T02:24:41;15.20;83.70
8043;DHT22;4064;48.132;11.366;2023-06-05T02:27:08;15.10;84.20
8043;DHT22;4064;48.132;11.366;2023-06-05T02:29:38;15.10;85.00
8043;DHT22;4064;48.132;11.366;2023-06-05T02:32:05;15.10;85.90
8043;DHT22;4064;48.132;11.366;2023-06-05T02:34:32;15.00;86.90
8043;DHT22;4064;48.132;11.366;2023-06-05T02:36:58;15.10;87.50
8043;DHT22;4064;48.132;11.366;2023-06-05T02:39:24;15.00;88.20
8043;DHT22;4064;48.132;11.366;2023-06-05T02:41:51;15.00;88.80
8043;DHT22;4064;48.132;11.366;2023-06-05T02:44:17;15.00;89.70
8043;DHT22;4064;48.132;11.366;2023-06-05T02:46:42;15.00;90.10
8043;DHT22;4064;48.132;11.366;2023-06-05T02:49:08;14.90;90.50
8043;DHT22;4064;48.132;11.366;2023-06-05T02:51:33;15.00;90.90
8043;DHT22;4064;48.132;11.366;2023-06-05T02:54:00;14.90;91.00
8043;DHT22;4064;48.132;11.366;2023-06-05T02:56:26;14.90;91.00
8043;DHT22;4064;48.132;11.366;2023-06-05T02:58:52;15.00;91.40
8043;DHT22;4064;48.132;11.366;2023-06-05T03:01:18;14.90;91.60
8043;DHT22;4064;48.132;11.366;2023-06-05T03:03:47;14.90;91.90
8043;DHT22;4064;48.132;11.366;2023-06-05T03:06:14;14.90;92.00
8043;DHT22;4064;48.132;11.366;2023-06-05T03:08:43;14.90;92.10
8043;DHT22;4064;48.132;11.366;2023-06-05T03:11:09;14.80;92.60
8043;DHT22;4064;48.132;11.366;2023-06-05T03:13:34;14.80;92.70
8043;DHT22;4064;48.132;11.366;2023-06-05T03:16:01;14.80;92.80
8043;DHT22;4064;48.132;11.366;2023-06-05T03:18:27;14.80;93.20
8043;DHT22;4064;48.132;11.366;2023-06-05T03:20:53;14.80;93.40
8043;DHT22;4064;48.132;11.366;2023-06-05T03:23:25;14.80;93.50
8043;DHT22;4064;48.132;11.366;2023-06-05T03:25:53;14.80;93.50
8043;DHT22;4064;48.132;11.366;2023-06-05T03:28:20;14.70;93.40
8043;DHT22;4064;48.132;11.366;2023-06-05T03:30:46;14.70;93.80
8043;DHT22;4064;48.132;11.366;2023-06-05T03:33:11;14.70;94.00
8043;DHT22;4064;48.132;11.366;2023-06-05T03:35:39;14.70;94.00
8043;DHT22;4064;48.132;11.366;2023-06-05T03:38:05;14.70;94.20
8043;DHT22;4064;48.132;11.366;2023-06-05T03:40:34;14.70;94.30
8043;DHT22;4064;48.132;11.366;2023-06-05T03:43:00;14.60;94.30
8043;DHT22;4064;48.132;11.366;2023-06-05T03:45:25;14.60;94.60
8043;DHT22;4064;48.132;11.366;2023-06-05T03:47:53;14.50;94.60
8043;DHT22;4064;48.132;11.366;2023-06-05T03:50:20;14.60;95.10
8043;DHT22;4064;48.132;11.366;2023-06-05T03:52:46;14.60;95.20
8043;DHT22;4064;48.132;11.366;2023-06-05T03:55:19;14.50;95.10
8043;DHT22;4064;48.132;11.366;2023-06-05T03:57:49;14.50;95.20
8043;DHT22;4064;48.132;11.366;2023-06-05T04:00:15;14.50;95.30
8043;DHT22;4064;48.132;11.366;2023-06-05T04:02:42;14.50;95.60
8043;DHT22;4064;48.132;11.366;2023-06-05T04:05:08;14.50;95.80
8043;DHT22;4064;48.132;11.366;2023-06-05T04:07:38;14.50;96.00
8043;DHT22;4064;48.132;11.366;2023-06-05T04:10:04;14.50;96.00
8043;DHT22;4064;48.132;11.366;2023-06-05T04:12:30;14.50;96.30
8043;DHT22;4064;48.132;11.366;2023-06-05T04:14:55;14.50;96.10
8043;DHT22;4064;48.132;11.366;2023-06-05T04:17:21;14.50;96.40
8043;DHT22;4064;48.132;11.366;2023-06-05T04:19:47;14.50;96.40
8043;DHT22;4064;48.132;11.366;2023-06-05T04:22:12;14.50;96.60
8043;DHT22;4064;48.132;11.366;2023-06-05T04:24:38;14.60;96.60
8043;DHT22;4064;48.132;11.366;2023-06-05T04:27:04;14.50;96.60
8043;DHT22;4064;48.132;11.366;2023-06-05T04:29:30;14.50;96.70
8043;DHT22;4064;48.132;11.366;2023-06-05T04:31:58;14.50;96.80
8043;DHT22;4064;48.132;11.366;2023-06-05T04:34:23;14.60;97.10
8043;DHT22;4064;48.132;11.366;2023-06-05T04:36:49;14.60;97.20
8043;DHT22;4064;48.132;11.366;2023-06-05T04:39:17;14.60;97.30
8043;DHT22;4064;48.132;11.366;2023-06-05T04:41:44;14.70;97.60
8043;DHT22;4064;48.132;11.366;2023-06-05T04:44:15;14.70;97.50
8043;DHT22;4064;48.132;11.366;2023-06-05T04:46:45;14.70;97.40
8043;DHT22;4064;48.132;11.366;2023-06-05T04:49:14;14.70;97.60
8043;DHT22;4064;48.132;11.366;2023-06-05T04:51:41;14.70;97.60
8043;DHT22;4064;48.132;11.366;2023-06-05T04:54:08;14.70;97.90
8043;DHT22;4064;48.132;11.366;2023-06-05T04:56:33;14.80;98.10
8043;DHT22;4064;48.132;11.366;2023-06-05T04:59:03;14.80;98.00
8043;DHT22;4064;48.132;11.366;2023-06-05T05:01:29;14.90;98.00
8043;DHT22;4064;48.132;11.366;2023-06-05T05:03:55;14.90;97.90
8043;DHT22;4064;48.132;11.366;2023-06-05T05:06:21;15.00;98.10
8043;DHT22;4064;48.132;11.366;2023-06-05T05:08:47;14.90;98.30
8043;DHT22;4064;48.132;11.366;2023-06-05T05:11:17;14.80;98.60
8043;DHT22;4064;48.132;11.366;2023-06-05T05:13:43;14.90;98.80
8043;DHT22;4064;48.132;11.366;2023-06-05T05:16:09;14.90;98.70
8043;DHT22;4064;48.132;11.366;2023-06-05T05:18:40;14.90;99.00
8043;DHT22;4064;48.132;11.366;2023-06-05T05:21:07;15.00;98.70
8043;DHT22;4064;48.132;11.366;2023-06-05T05:23:33;15.10;98.90
8043;DHT22;4064;48.132;11.366;2023-06-05T05:25:59;15.10;98.70
8043;DHT22;4064;48.132;11.366;2023-06-05T05:28:25;15.20;98.50
8043;DHT22;4064;48.132;11.366;2023-06-05T05:30:51;15.30;98.30
8043;DHT22;4064;48.132;11.366;2023-06-05T05:33:17;15.30;98.20
8043;DHT22;4064;48.132;11.366;2023-06-05T05:35:44;15.50;98.60
8043;DHT22;4064;48.132;11.366;2023-06-05T05:38:10;15.50;98.20
8043;DHT22;4064;48.132;11.366;2023-06-05T05:40:36;15.60;98.20
8043;DHT22;4064;48.132;11.366;2023-06-05T05:43:01;15.70;98.10
8043;DHT22;4064;48.132;11.366;2023-06-05T05:45:27;15.80;98.30
8043;DHT22;4064;48.132;11.366;2023-06-05T05:47:52;15.90;98.00
8043;DHT22;4064;48.132;11.366;2023-06-05T05:50:18;16.00;98.00
8043;DHT22;4064;48.132;11.366;2023-06-05T05:52:44;16.20;97.70
8043;DHT22;4064;48.132;11.366;2023-06-05T05:55:10;16.50;97.50
8043;DHT22;4064;48.132;11.366;2023-06-05T05:57:36;16.70;97.20
8043;DHT22;4064;48.132;11.366;2023-06-05T06:00:03;17.00;96.40
8043;DHT22;4064;48.132;11.366;2023-06-05T06:02:34;17.10;96.10
8043;DHT22;4064;48.132;11.366;2023-06-05T06:04:59;17.30;96.00
8043;DHT22;4064;48.132;11.366;2023-06-05T06:07:27;17.40;95.00
8043;DHT22;4064;48.132;11.366;2023-06-05T06:09:53;17.40;94.90
8043;DHT22;4064;48.132;11.366;2023-06-05T06:12:19;17.40;95.00
8043;DHT22;4064;48.132;11.366;2023-06-05T06:14:44;17.40;95.10
8043;DHT22;4064;48.132;11.366;2023-06-05T06:17:11;17.20;95.10
8043;DHT22;4064;48.132;11.366;2023-06-05T06:19:37;17.30;95.00
8043;DHT22;4064;48.132;11.366;2023-06-05T06:22:03;17.30;94.90
8043;DHT22;4064;48.132;11.366;2023-06-05T06:24:29;17.20;95.00
8043;DHT22;4064;48.132;11.366;2023-06-05T06:26:54;17.40;94.40
8043;DHT22;4064;48.132;11.366;2023-06-05T06:29:20;17.50;94.70
8043;DHT22;4064;48.132;11.366;2023-06-05T06:31:46;17.80;95.00
8043;DHT22;4064;48.132;11.366;2023-06-05T06:34:12;18.30;94.40
8043;DHT22;4064;48.132;11.366;2023-06-05T06:36:38;18.50;93.30
8043;DHT22;4064;48.132;11.366;2023-06-05T06:39:06;18.40;92.90
8043;DHT22;4064;48.132;11.366;2023-06-05T06:41:33;18.20;92.50
8043;DHT22;4064;48.132;11.366;2023-06-05T06:44:00;18.20;93.10
8043;DHT22;4064;48.132;11.366;2023-06-05T06:46:25;18.20;92.80
8043;DHT22;4064;48.132;11.366;2023-06-05T06:48:51;18.40;92.90
8043;DHT22;4064;48.132;11.366;2023-06-05T06:51:17;18.50;92.70
8043;DHT22;4064;48.132;11.366;2023-06-05T06:53:43;18.60;92.60
8043;DHT22;4064;48.132;11.366;2023-06-05T06:56:09;18.80;92.50
8043;DHT22;4064;48.132;11.366;2023-06-05T06:58:36;19.00;92.20
8043;DHT22;4064;48.132;11.366;2023-06-05T07:01:02;18.90;92.00
8043;DHT22;4064;48.132;11.366;2023-06-05T07:03:28;19.00;91.50
8043;DHT22;4064;48.132;11.366;2023-06-05T07:05:54;19.30;91.70
8043;DHT22;4064;48.132;11.366;2023-06-05T07:08:20;19.40;91.70
8043;DHT22;4064;48.132;11.366;2023-06-05T07:10:45;19.30;91.50
8043;DHT22;4064;48.132;11.366;2023-06-05T07:13:11;19.30;91.10
8043;DHT22;4064;48.132;11.366;2023-06-05T07:15:37;19.40;91.00
8043;DHT22;4064;48.132;11.366;2023-06-05T07:18:03;19.50;91.30
8043;DHT22;4064;48.132;11.366;2023-06-05T07:20:28;19.60;90.40
8043;DHT22;4064;48.132;11.366;2023-06-05T07:22:54;19.60;90.30
8043;DHT22;4064;48.132;11.366;2023-06-05T07:25:20;19.40;90.40
8043;DHT22;4064;48.132;11.366;2023-06-05T07:27:48;19.40;89.80
8043;DHT22;4064;48.132;11.366;2023-06-05T07:30:13;19.50;90.60
8043;DHT22;4064;48.132;11.366;2023-06-05T07:32:40;19.50;90.30
8043;DHT22;4064;48.132;11.366;2023-06-05T07:35:08;19.50;90.30
8043;DHT22;4064;48.132;11.366;2023-06-05T07:37:34;19.70;89.90
8043;DHT22;4064;48.132;11.366;2023-06-05T07:40:00;19.80;88.00
8043;DHT22;4064;48.132;11.366;2023-06-05T07:42:26;20.10;88.90
8043;DHT22;4064;48.132;11.366;2023-06-05T07:44:52;20.60;88.00
8043;DHT22;4064;48.132;11.366;2023-06-05T07:47:17;20.80;87.90
8043;DHT22;4064;48.132;11.366;2023-06-05T07:49:43;20.90;87.80
8043;DHT22;4064;48.132;11.366;2023-06-05T07:52:09;21.20;85.10
8043;DHT22;4064;48.132;11.366;2023-06-05T07:54:34;21.50;85.90
8043;DHT22;4064;48.132;11.366;2023-06-05T07:57:00;21.70;85.00
8043;DHT22;4064;48.132;11.366;2023-06-05T07:59:25;21.80;82.80
8043;DHT22;4064;48.132;11.366;2023-06-05T08:01:53;21.70;83.80
8043;DHT22;4064;48.132;11.366;2023-06-05T08:04:19;21.70;83.20
8043;DHT22;4064;48.132;11.366;2023-06-05T08:06:47;21.80;82.40
8043;DHT22;4064;48.132;11.366;2023-06-05T08:09:13;21.80;80.40
8043;DHT22;4064;48.132;11.366;2023-06-05T08:11:39;21.70;81.70
8043;DHT22;4064;48.132;11.366;2023-06-05T08:14:05;22.00;81.90
8043;DHT22;4064;48.132;11.366;2023-06-05T08:16:32;22.60;81.80
8043;DHT22;4064;48.132;11.366;2023-06-05T08:18:57;23.00;79.00
8043;DHT22;4064;48.132;11.366;2023-06-05T08:21:23;22.90;77.60
8043;DHT22;4064;48.132;11.366;2023-06-05T08:23:49;22.90;77.60
8043;DHT22;4064;48.132;11.366;2023-06-05T08:26:14;23.20;78.20
8043;DHT22;4064;48.132;11.366;2023-06-05T08:28:41;23.40;77.00
8043;DHT22;4064;48.132;11.366;2023-06-05T08:31:10;23.20;75.00
8043;DHT22;4064;48.132;11.366;2023-06-05T08:33:37;23.00;75.80
8043;DHT22;4064;48.132;11.366;2023-06-05T08:36:04;23.10;74.60
8043;DHT22;4064;48.132;11.366;2023-06-05T08:38:31;23.20;75.00
8043;DHT22;4064;48.132;11.366;2023-06-05T08:41:06;23.50;73.30
8043;DHT22;4064;48.132;11.366;2023-06-05T08:43:39;23.80;74.50
8043;DHT22;4064;48.132;11.366;2023-06-05T08:46:08;24.00;73.70
8043;DHT22;4064;48.132;11.366;2023-06-05T08:48:41;24.20;74.00
8043;DHT22;4064;48.132;11.366;2023-06-05T08:51:10;24.50;71.80
8043;DHT22;4064;48.132;11.366;2023-06-05T08:53:38;24.30;68.60
8043;DHT22;4064;48.132;11.366;2023-06-05T08:56:06;24.40;70.40
8043;DHT22;4064;48.132;11.366;2023-06-05T08:58:34;24.50;70.00
8043;DHT22;4064;48.132;11.366;2023-06-05T09:01:00;24.40;68.40
8043;DHT22;4064;48.132;11.366;2023-06-05T09:03:25;24.90;70.10
8043;DHT22;4064;48.132;11.366;2023-06-05T09:05:52;25.00;69.70
8043;DHT22;4064;48.132;11.366;2023-06-05T09:08:45;25.00;68.00
8043;DHT22;4064;48.132;11.366;2023-06-05T09:11:30;25.10;66.10
8043;DHT22;4064;48.132;11.366;2023-06-05T09:13:57;25.00;67.10
8043;DHT22;4064;48.132;11.366;2023-06-05T09:16:38;24.90;64.90
8043;DHT22;4064;48.132;11.366;2023-06-05T09:19:04;24.80;65.50
8043;DHT22;4064;48.132;11.366;2023-06-05T09:21:32;25.00;65.30
8043;DHT22;4064;48.132;11.366;2023-06-05T09:26:46;25.00;63.40
8043;DHT22;4064;48.132;11.366;2023-06-05T09:29:12;24.60;62.70
8043;DHT22;4064;48.132;11.366;2023-06-05T09:31:41;24.30;63.80
8043;DHT22;4064;48.132;11.366;2023-06-05T09:34:07;24.40;63.80
8043;DHT22;4064;48.132;11.366;2023-06-05T09:36:33;24.50;64.40
8043;DHT22;4064;48.132;11.366;2023-06-05T09:39:14;25.00;62.60
8043;DHT22;4064;48.132;11.366;2023-06-05T09:41:47;24.70;64.30
8043;DHT22;4064;48.132;11.366;2023-06-05T09:44:14;24.70;62.50
8043;DHT22;4064;48.132;11.366;2023-06-05T09:47:03;24.80;62.70
8043;DHT22;4064;48.132;11.366;2023-06-05T09:49:32;25.40;63.10
8043;DHT22;4064;48.132;11.366;2023-06-05T09:51:59;25.20;62.30
8043;DHT22;4064;48.132;11.366;2023-06-05T09:54:27;25.50;64.60
8043;DHT22;4064;48.132;11.366;2023-06-05T09:56:59;25.70;62.50
8043;DHT22;4064;48.132;11.366;2023-06-05T09:59:34;26.00;61.30
8043;DHT22;4064;48.132;11.366;2023-06-05T10:02:04;25.50;60.90
8043;DHT22;4064;48.132;11.366;2023-06-05T10:04:36;25.30;63.10
8043;DHT22;4064;48.132;11.366;2023-06-05T10:07:03;24.70;63.20
8043;DHT22;4064;48.132;11.366;2023-06-05T10:09:30;24.20;62.30
8043;DHT22;4064;48.132;11.366;2023-06-05T10:11:59;23.90;63.10
8043;DHT22;4064;48.132;11.366;2023-06-05T10:14:26;23.80;62.10
8043;DHT22;4064;48.132;11.366;2023-06-05T10:16:52;23.90;61.90
8043;DHT22;4064;48.132;11.366;2023-06-05T10:19:18;23.50;64.60
8043;DHT22;4064;48.132;11.366;2023-06-05T10:21:51;23.00;64.80
8043;DHT22;4064;48.132;11.366;2023-06-05T10:24:33;22.90;65.40
8043;DHT22;4064;48.132;11.366;2023-06-05T10:37:31;23.70;62.50
8043;DHT22;4064;48.132;11.366;2023-06-05T10:39:59;24.60;64.00
8043;DHT22;4064;48.132;11.366;2023-06-05T10:42:28;24.60;59.90
8043;DHT22;4064;48.132;11.366;2023-06-05T10:44:59;24.50;60.90
8043;DHT22;4064;48.132;11.366;2023-06-05T10:52:48;26.10;58.50
8043;DHT22;4064;48.132;11.366;2023-06-05T10:55:14;26.10;57.90
8043;DHT22;4064;48.132;11.366;2023-06-05T11:00:30;26.20;57.70
8043;DHT22;4064;48.132;11.366;2023-06-05T11:02:57;26.20;57.50
8043;DHT22;4064;48.132;11.366;2023-06-05T11:05:23;26.50;57.10
8043;DHT22;4064;48.132;11.366;2023-06-05T11:08:13;26.80;58.00
8043;DHT22;4064;48.132;11.366;2023-06-05T11:13:54;26.10;57.20
8043;DHT22;4064;48.132;11.366;2023-06-05T11:18:52;26.80;57.70
8043;DHT22;4064;48.132;11.366;2023-06-05T11:21:20;26.80;57.40
8043;DHT22;4064;48.132;11.366;2023-06-05T11:24:15;26.30;59.00
8043;DHT22;4064;48.132;11.366;2023-06-05T11:26:41;25.50;59.20
8043;DHT22;4064;48.132;11.366;2023-06-05T11:29:15;25.50;59.10
8043;DHT22;4064;48.132;11.366;2023-06-05T11:31:43;25.20;58.70
8043;DHT22;4064;48.132;11.366;2023-06-05T11:34:13;25.00;58.80
8043;DHT22;4064;48.132;11.366;2023-06-05T11:36:39;25.00;60.10
8043;DHT22;4064;48.132;11.366;2023-06-05T11:39:05;25.60;59.90
8043;DHT22;4064;48.132;11.366;2023-06-05T11:41:31;25.40;57.80
8043;DHT22;4064;48.132;11.366;2023-06-05T11:43:57;25.30;56.80
8043;DHT22;4064;48.132;11.366;2023-06-05T11:46:43;25.30;58.10
8043;DHT22;4064;48.132;11.366;2023-06-05T11:49:26;25.70;58.70
8043;DHT22;4064;48.132;11.366;2023-06-05T11:51:53;25.80;57.40
8043;DHT22;4064;48.132;11.366;2023-06-05T11:54:27;25.80;56.40
8043;DHT22;4064;48.132;11.366;2023-06-05T11:57:00;25.30;57.90
8043;DHT22;4064;48.132;11.366;2023-06-05T11:59:34;25.80;58.00
8043;DHT22;4064;48.132;11.366;2023-06-05T12:01:59;25.90;57.20
8043;DHT22;4064;48.132;11.366;2023-06-05T12:04:25;25.60;57.20
8043;DHT22;4064;48.132;11.366;2023-06-05T12:06:51;25.50;57.70
8043;DHT22;4064;48.132;11.366;2023-06-05T12:09:18;25.40;58.10
8043;DHT22;4064;48.132;11.366;2023-06-05T12:11:44;24.70;58.60
8043;DHT22;4064;48.132;11.366;2023-06-05T12:14:11;24.40;59.90
8043;DHT22;4064;48.132;11.366;2023-06-05T12:16:38;24.30;59.00
8043;DHT22;4064;48.132;11.366;2023-06-05T12:19:13;23.70;60.30
8043;DHT22;4064;48.132;11.366;2023-06-05T12:21:39;23.70;60.70
8043;DHT22;4064;48.132;11.366;2023-06-05T12:24:06;23.60;59.70
8043;DHT22;4064;48.132;11.366;2023-06-05T12:26:54;23.40;59.70
8043;DHT22;4064;48.132;11.366;2023-06-05T12:29:25;23.50;60.40
8043;DHT22;4064;48.132;11.366;2023-06-05T12:31:52;23.70;59.70
8043;DHT22;4064;48.132;11.366;2023-06-05T12:34:17;24.20;59.20
8043;DHT22;4064;48.132;11.366;2023-06-05T12:36:44;24.60;58.50
8043;DHT22;4064;48.132;11.366;2023-06-05T12:39:14;25.10;57.00
8043;DHT22;4064;48.132;11.366;2023-06-05T12:41:42;24.80;59.20
8043;DHT22;4064;48.132;11.366;2023-06-05T12:44:07;24.40;59.00
8043;DHT22;4064;48.132;11.366;2023-06-05T12:46:34;24.00;59.80
8043;DHT22;4064;48.132;11.366;2023-06-05T12:49:01;23.70;59.60
8043;DHT22;4064;48.132;11.366;2023-06-05T12:51:27;23.70;59.90
8043;DHT22;4064;48.132;11.366;2023-06-05T12:53:56;23.60;59.30
8043;DHT22;4064;48.132;11.366;2023-06-05T12:56:23;23.90;60.80
8043;DHT22;4064;48.132;11.366;2023-06-05T12:58:57;24.20;62.20
8043;DHT22;4064;48.132;11.366;2023-06-05T13:01:26;24.30;58.30
8043;DHT22;4064;48.132;11.366;2023-06-05T13:03:54;24.40;58.90
8043;DHT22;4064;48.132;11.366;2023-06-05T13:06:19;24.30;58.30
8043;DHT22;4064;48.132;11.366;2023-06-05T13:08:45;24.40;57.70
8043;DHT22;4064;48.132;11.366;2023-06-05T13:11:12;24.70;56.70
8043;DHT22;4064;48.132;11.366;2023-06-05T13:13:38;24.10;58.30
8043;DHT22;4064;48.132;11.366;2023-06-05T13:16:05;23.80;58.60
8043;DHT22;4064;48.132;11.366;2023-06-05T13:18:32;23.90;58.40
8043;DHT22;4064;48.132;11.366;2023-06-05T13:20:59;24.10;58.70
8043;DHT22;4064;48.132;11.366;2023-06-05T13:23:24;24.70;59.50
8043;DHT22;4064;48.132;11.366;2023-06-05T13:25:50;25.20;59.70
8043;DHT22;4064;48.132;11.366;2023-06-05T13:28:16;25.40;59.10
8043;DHT22;4064;48.132;11.366;2023-06-05T13:30:42;25.20;59.70
8043;DHT22;4064;48.132;11.366;2023-06-05T13:33:07;25.10;59.50
8043;DHT22;4064;48.132;11.366;2023-06-05T13:35:33;24.90;58.60
8043;DHT22;4064;48.132;11.366;2023-06-05T13:37:58;24.50;58.50
8043;DHT22;4064;48.132;11.366;2023-06-05T13:40:24;24.20;59.60
8043;DHT22;4064;48.132;11.366;2023-06-05T13:42:53;24.10;60.10
8043;DHT22;4064;48.132;11.366;2023-06-05T13:45:18;23.90;60.20
8043;DHT22;4064;48.132;11.366;2023-06-05T13:47:44;23.80;61.20
8043;DHT22;4064;48.132;11.366;2023-06-05T13:50:10;23.70;61.10
8043;DHT22;4064;48.132;11.366;2023-06-05T13:52:36;23.90;62.00
8043;DHT22;4064;48.132;11.366;2023-06-05T13:55:02;24.00;61.00
8043;DHT22;4064;48.132;11.366;2023-06-05T13:57:28;23.80;60.50
8043;DHT22;4064;48.132;11.366;2023-06-05T13:59:54;23.70;60.00
8043;DHT22;4064;48.132;11.366;2023-06-05T14:02:21;23.80;61.40
8043;DHT22;4064;48.132;11.366;2023-06-05T14:04:46;23.70;61.80
8043;DHT22;4064;48.132;11.366;2023-06-05T14:07:12;24.20;62.10
8043;DHT22;4064;48.132;11.366;2023-06-05T14:09:38;24.10;62.30
8043;DHT22;4064;48.132;11.366;2023-06-05T14:12:04;23.60;62.40
8043;DHT22;4064;48.132;11.366;2023-06-05T14:14:30;23.60;63.20
8043;DHT22;4064;48.132;11.366;2023-06-05T14:16:56;24.00;64.10
8043;DHT22;4064;48.132;11.366;2023-06-05T14:19:21;24.10;62.50
8043;DHT22;4064;48.132;11.366;2023-06-05T14:21:47;24.40;63.40
8043;DHT22;4064;48.132;11.366;2023-06-05T14:24:13;24.20;62.80
8043;DHT22;4064;48.132;11.366;2023-06-05T14:26:39;23.90;61.90
8043;DHT22;4064;48.132;11.366;2023-06-05T14:29:05;23.70;62.90
8043;DHT22;4064;48.132;11.366;2023-06-05T14:31:30;23.80;63.70
8043;DHT22;4064;48.132;11.366;2023-06-05T14:33:56;23.80;63.30
8043;DHT22;4064;48.132;11.366;2023-06-05T14:36:22;23.10;63.30
8043;DHT22;4064;48.132;11.366;2023-06-05T14:38:47;23.10;62.60
8043;DHT22;4064;48.132;11.366;2023-06-05T14:41:13;23.10;63.50
8043;DHT22;4064;48.132;11.366;2023-06-05T14:43:38;23.20;64.90
8043;DHT22;4064;48.132;11.366;2023-06-05T14:46:04;23.30;62.70
8043;DHT22;4064;48.132;11.366;2023-06-05T14:48:30;23.20;63.00
8043;DHT22;4064;48.132;11.366;2023-06-05T14:50:56;23.30;63.00
8043;DHT22;4064;48.132;11.366;2023-06-05T14:53:23;23.10;62.90
8043;DHT22;4064;48.132;11.366;2023-06-05T14:55:49;22.80;63.10
8043;DHT22;4064;48.132;11.366;2023-06-05T14:58:15;22.70;63.30
8043;DHT22;4064;48.132;11.366;2023-06-05T15:00:41;22.50;63.40
8043;DHT22;4064;48.132;11.366;2023-06-05T15:03:07;22.50;63.90
8043;DHT22;4064;48.132;11.366;2023-06-05T15:05:33;22.40;62.50
8043;DHT22;4064;48.132;11.366;2023-06-05T15:07:58;22.30;63.00
8043;DHT22;4064;48.132;11.366;2023-06-05T15:10:24;22.30;63.20
8043;DHT22;4064;48.132;11.366;2023-06-05T15:12:50;22.30;63.00
8043;DHT22;4064;48.132;11.366;2023-06-05T15:15:21;22.20;63.90
8043;DHT22;4064;48.132;11.366;2023-06-05T15:17:48;22.20;64.50
8043;DHT22;4064;48.132;11.366;2023-06-05T15:20:14;22.20;64.50
8043;DHT22;4064;48.132;11.366;2023-06-05T15:22:39;22.20;64.90
8043;DHT22;4064;48.132;11.366;2023-06-05T15:25:05;22.10;63.30
8043;DHT22;4064;48.132;11.366;2023-06-05T15:27:32;22.10;63.80
8043;DHT22;4064;48.132;11.366;2023-06-05T15:29:57;22.00;64.20
8043;DHT22;4064;48.132;11.366;2023-06-05T15:32:25;21.80;64.60
8043;DHT22;4064;48.132;11.366;2023-06-05T15:34:51;21.70;64.70
8043;DHT22;4064;48.132;11.366;2023-06-05T15:37:16;21.70;64.90
8043;DHT22;4064;48.132;11.366;2023-06-05T15:39:42;21.50;65.00
8043;DHT22;4064;48.132;11.366;2023-06-05T15:42:08;21.50;65.80
8043;DHT22;4064;48.132;11.366;2023-06-05T15:44:37;21.50;65.80
8043;DHT22;4064;48.132;11.366;2023-06-05T15:47:05;21.40;65.90
8043;DHT22;4064;48.132;11.366;2023-06-05T15:49:31;21.30;66.50
8043;DHT22;4064;48.132;11.366;2023-06-05T15:51:57;21.40;67.20
8043;DHT22;4064;48.132;11.366;2023-06-05T15:54:22;21.50;67.20
8043;DHT22;4064;48.132;11.366;2023-06-05T15:57:01;21.40;67.00
8043;DHT22;4064;48.132;11.366;2023-06-05T15:59:27;21.40;67.70
8043;DHT22;4064;48.132;11.366;2023-06-05T16:01:52;21.40;67.10
8043;DHT22;4064;48.132;11.366;2023-06-05T16:04:18;21.30;67.30
8043;DHT22;4064;48.132;11.366;2023-06-05T16:06:43;21.20;67.80
8043;DHT22;4064;48.132;11.366;2023-06-05T16:09:09;21.20;68.60
8043;DHT22;4064;48.132;11.366;2023-06-05T16:11:35;21.10;67.80
8043;DHT22;4064;48.132;11.366;2023-06-05T16:14:01;20.90;67.50
8043;DHT22;4064;48.132;11.366;2023-06-05T16:16:27;21.00;67.70
8043;DHT22;4064;48.132;11.366;2023-06-05T16:18:53;21.00;67.50